sensor_id;sensor_type;location;lat;lon;timestamp;pressure;altitude;pressure_sealevel;temperature;humidity
45253;BME280;63171;50.520;30.486;2023-05-20T00:00:26;100798.81;;;18.05;86.94
45253;BME280;63171;50.520;30.486;2023-05-20T00:02:53;100797.72;;;17.96;87.14
45253;BME280;63171;50.520;30.486;2023-05-20T00:03:43;100802.06;;;17.97;86.99
45253;BME280;63171;50.520;30.486;2023-05-20T00:04:34;100803.63;;;18.00;86.94
45253;BME280;63171;50.520;30.486;2023-05-20T00:05:24;100807.00;;;18.02;87.08
45253;BME280;63171;50.520;30.486;2023-05-20T00:06:15;100793.28;;;17.97;86.96
45253;BME280;63171;50.520;30.486;2023-05-20T00:07:05;100798.19;;;18.01;87.00
45253;BME280;63171;50.520;30.486;2023-05-20T00:07:56;100798.13;;;18.03;87.08
45253;BME280;63171;50.520;30.486;2023-05-20T00:08:45;100792.19;;;17.99;87.17
45253;BME280;63171;50.520;30.486;2023-05-20T00:09:37;100796.66;;;17.99;87.09
45253;BME280;63171;50.520;30.486;2023-05-20T00:10:27;100794.84;;;17.99;87.16
45253;BME280;63171;50.520;30.486;2023-05-20T00:11:17;100791.22;;;18.00;87.25
45253;BME280;63171;50.520;30.486;2023-05-20T00:12:07;100792.81;;;18.03;87.08
45253;BME280;63171;50.520;30.486;2023-05-20T00:12:58;100790.75;;;17.95;86.94
45253;BME280;63171;50.520;30.486;2023-05-20T00:13:49;100788.47;;;17.91;86.92
45253;BME280;63171;50.520;30.486;2023-05-20T00:14:40;100786.78;;;17.90;86.95
45253;BME280;63171;50.520;30.486;2023-05-20T00:15:30;100791.22;;;17.89;87.00
45253;BME280;63171;50.520;30.486;2023-05-20T00:16:21;100783.88;;;17.93;87.23
45253;BME280;63171;50.520;30.486;2023-05-20T00:17:10;100787.25;;;17.95;87.52
45253;BME280;63171;50.520;30.486;2023-05-20T00:18:01;100781.22;;;17.93;87.18
45253;BME280;63171;50.520;30.486;2023-05-20T00:18:52;100785.06;;;17.89;87.28
45253;BME280;63171;50.520;30.486;2023-05-20T00:19:43;100778.09;;;17.88;87.24
45253;BME280;63171;50.520;30.486;2023-05-20T00:20:32;100777.97;;;17.89;87.27
45253;BME280;63171;50.520;30.486;2023-05-20T00:21:23;100780.59;;;17.89;87.35
45253;BME280;63171;50.520;30.486;2023-05-20T00:22:13;100785.44;;;17.84;87.37
45253;BME280;63171;50.520;30.486;2023-05-20T00:23:04;100778.56;;;17.82;87.17
45253;BME280;63171;50.520;30.486;2023-05-20T00:23:54;100781.94;;;17.84;87.21
45253;BME280;63171;50.520;30.486;2023-05-20T00:24:45;100783.75;;;17.83;87.32
45253;BME280;63171;50.520;30.486;2023-05-20T00:25:34;100787.97;;;17.86;87.51
45253;BME280;63171;50.520;30.486;2023-05-20T00:26:25;100781.47;;;17.79;87.24
45253;BME280;63171;50.520;30.486;2023-05-20T00:27:17;100776.78;;;17.82;87.56
45253;BME280;63171;50.520;30.486;2023-05-20T00:28:08;100792.91;;;17.79;87.46
45253;BME280;63171;50.520;30.486;2023-05-20T00:28:59;100787.38;;;17.82;87.46
45253;BME280;63171;50.520;30.486;2023-05-20T00:29:50;100790.47;;;17.76;87.54
45253;BME280;63171;50.520;30.486;2023-05-20T00:30:40;100786.66;;;17.80;87.59
45253;BME280;63171;50.520;30.486;2023-05-20T00:31:31;100797.72;;;17.85;87.78
45253;BME280;63171;50.520;30.486;2023-05-20T00:32:20;100786.41;;;17.83;87.70
45253;BME280;63171;50.520;30.486;2023-05-20T00:33:11;100788.22;;;17.83;87.49
45253;BME280;63171;50.520;30.486;2023-05-20T00:34:01;100790.13;;;17.81;87.77
45253;BME280;63171;50.520;30.486;2023-05-20T00:34:55;100784.59;;;17.84;87.70
45253;BME280;63171;50.520;30.486;2023-05-20T00:35:45;100789.06;;;17.83;87.93
45253;BME280;63171;50.520;30.486;2023-05-20T00:36:36;100789.78;;;17.85;87.80
45253;BME280;63171;50.520;30.486;2023-05-20T00:37:26;100789.06;;;17.83;87.90
45253;BME280;63171;50.520;30.486;2023-05-20T00:38:15;100794.91;;;17.64;87.49
45253;BME280;63171;50.520;30.486;2023-05-20T00:39:06;100789.88;;;17.72;87.71
45253;BME280;63171;50.520;30.486;2023-05-20T00:39:56;100793.63;;;17.70;87.75
45253;BME280;63171;50.520;30.486;2023-05-20T00:40:47;100797.59;;;17.76;87.85
45253;BME280;63171;50.520;30.486;2023-05-20T00:41:37;100786.66;;;17.80;87.93
45253;BME280;63171;50.520;30.486;2023-05-20T00:42:28;100795.78;;;17.76;87.94
45253;BME280;63171;50.520;30.486;2023-05-20T00:43:17;100793.88;;;17.78;88.00
45253;BME280;63171;50.520;30.486;2023-05-20T00:44:10;100797.38;;;17.79;87.96
45253;BME280;63171;50.520;30.486;2023-05-20T00:44:59;100788.69;;;17.77;88.13
45253;BME280;63171;50.520;30.486;2023-05-20T00:45:50;100799.31;;;17.77;88.06
45253;BME280;63171;50.520;30.486;2023-05-20T00:46:40;100796.75;;;17.75;87.99
45253;BME280;63171;50.520;30.486;2023-05-20T00:47:32;100791.19;;;17.67;88.09
45253;BME280;63171;50.520;30.486;2023-05-20T00:48:22;100794.56;;;17.69;88.03
45253;BME280;63171;50.520;30.486;2023-05-20T00:49:14;100796.13;;;17.71;88.18
45253;BME280;63171;50.520;30.486;2023-05-20T00:50:05;100792.41;;;17.74;88.24
45253;BME280;63171;50.520;30.486;2023-05-20T00:50:56;100797.69;;;17.74;88.35
45253;BME280;63171;50.520;30.486;2023-05-20T00:51:46;100796.03;;;17.73;88.31
45253;BME280;63171;50.520;30.486;2023-05-20T00:52:37;100795.91;;;17.75;88.07
45253;BME280;63171;50.520;30.486;2023-05-20T00:53:27;100796.75;;;17.75;88.31
45253;BME280;63171;50.520;30.486;2023-05-20T00:54:18;100793.38;;;17.73;88.19
45253;BME280;63171;50.520;30.486;2023-05-20T00:55:08;100793.09;;;17.65;88.16
45253;BME280;63171;50.520;30.486;2023-05-20T00:55:58;100793.81;;;17.67;88.44
45253;BME280;63171;50.520;30.486;2023-05-20T00:56:48;100793.75;;;17.68;88.42
45253;BME280;63171;50.520;30.486;2023-05-20T00:57:39;100795.28;;;17.71;88.43
45253;BME280;63171;50.520;30.486;2023-05-20T00:58:29;100794.56;;;17.69;88.52
45253;BME280;63171;50.520;30.486;2023-05-20T00:59:21;100790.00;;;17.71;88.67
45253;BME280;63171;50.520;30.486;2023-05-20T01:00:12;100793.50;;;17.71;88.59
45253;BME280;63171;50.520;30.486;2023-05-20T01:01:02;100793.50;;;17.71;88.59
45253;BME280;63171;50.520;30.486;2023-05-20T01:01:53;100792.53;;;17.72;88.55
45253;BME280;63171;50.520;30.486;2023-05-20T01:02:44;100793.63;;;17.70;88.77
45253;BME280;63171;50.520;30.486;2023-05-20T01:03:35;100791.09;;;17.68;88.74
45253;BME280;63171;50.520;30.486;2023-05-20T01:04:25;100797.09;;;17.70;88.67
45253;BME280;63171;50.520;30.486;2023-05-20T01:05:17;100793.38;;;17.73;88.79
45253;BME280;63171;50.520;30.486;2023-05-20T01:06:06;100790.72;;;17.73;88.74
45253;BME280;63171;50.520;30.486;2023-05-20T01:06:57;100790.59;;;17.75;88.95
45253;BME280;63171;50.520;30.486;2023-05-20T01:07:47;100793.31;;;17.62;88.75
45253;BME280;63171;50.520;30.486;2023-05-20T01:08:37;100786.94;;;17.53;88.70
45253;BME280;63171;50.520;30.486;2023-05-20T01:09:27;100785.72;;;17.57;88.77
45253;BME280;63171;50.520;30.486;2023-05-20T01:10:20;100791.75;;;17.59;88.83
45253;BME280;63171;50.520;30.486;2023-05-20T01:11:18;100789.81;;;17.61;89.08
45253;BME280;63171;50.520;30.486;2023-05-20T01:12:13;100792.59;;;17.60;88.95
45253;BME280;63171;50.520;30.486;2023-05-20T01:13:07;100786.34;;;17.61;89.08
45253;BME280;63171;50.520;30.486;2023-05-20T01:14:02;100791.63;;;17.61;89.09
45253;BME280;63171;50.520;30.486;2023-05-20T01:14:58;100784.66;;;17.60;89.20
45253;BME280;63171;50.520;30.486;2023-05-20T01:15:53;100792.72;;;17.58;89.12
45253;BME280;63171;50.520;30.486;2023-05-20T01:16:44;100784.66;;;17.60;89.28
45253;BME280;63171;50.520;30.486;2023-05-20T01:17:38;100783.56;;;17.62;89.21
45253;BME280;63171;50.520;30.486;2023-05-20T01:18:29;100788.00;;;17.62;89.35
45253;BME280;63171;50.520;30.486;2023-05-20T01:19:26;100787.28;;;17.60;89.25
45253;BME280;63171;50.520;30.486;2023-05-20T01:20:22;100791.03;;;17.57;89.14
45253;BME280;63171;50.520;30.486;2023-05-20T01:21:14;100787.66;;;17.55;89.20
45253;BME280;63171;50.520;30.486;2023-05-20T01:22:06;100790.19;;;17.57;89.16
45253;BME280;63171;50.520;30.486;2023-05-20T01:23:02;100787.41;;;17.58;89.31
45253;BME280;63171;50.520;30.486;2023-05-20T01:23:52;100779.84;;;17.54;89.26
45253;BME280;63171;50.520;30.486;2023-05-20T01:24:44;100780.44;;;17.57;89.17
45253;BME280;63171;50.520;30.486;2023-05-20T01:25:34;100791.03;;;17.57;89.30
45253;BME280;63171;50.520;30.486;2023-05-20T01:26:24;100791.88;;;17.58;89.52
45253;BME280;63171;50.520;30.486;2023-05-20T01:27:15;100784.88;;;17.57;89.36
45253;BME280;63171;50.520;30.486;2023-05-20T01:28:09;100785.84;;;17.56;89.36
45253;BME280;63171;50.520;30.486;2023-05-20T01:28:59;100786.09;;;17.53;89.14
45253;BME280;63171;50.520;30.486;2023-05-20T01:29:52;100781.03;;;17.50;89.17
45253;BME280;63171;50.520;30.486;2023-05-20T01:30:55;100781.03;;;17.50;89.28
45253;BME280;63171;50.520;30.486;2023-05-20T01:31:46;100779.44;;;17.47;89.19
45253;BME280;63171;50.520;30.486;2023-05-20T01:32:38;100784.88;;;17.46;89.31
45253;BME280;63171;50.520;30.486;2023-05-20T01:33:30;100785.81;;;17.44;89.06
45253;BME280;63171;50.520;30.486;2023-05-20T01:34:24;100783.53;;;17.40;89.03
45253;BME280;63171;50.520;30.486;2023-05-20T01:35:16;100781.00;;;17.38;89.05
45253;BME280;63171;50.520;30.486;2023-05-20T01:36:06;100791.81;;;17.35;89.05
45253;BME280;63171;50.520;30.486;2023-05-20T01:36:58;100787.28;;;17.37;89.10
45253;BME280;63171;50.520;30.486;2023-05-20T01:37:49;100791.59;;;17.38;89.24
45253;BME280;63171;50.520;30.486;2023-05-20T01:38:44;100791.59;;;17.38;89.26
45253;BME280;63171;50.520;30.486;2023-05-20T01:39:37;100788.97;;;17.38;89.10
45253;BME280;63171;50.520;30.486;2023-05-20T01:40:30;100781.00;;;17.38;89.31
45253;BME280;63171;50.520;30.486;2023-05-20T01:41:22;100785.22;;;17.41;89.28
45253;BME280;63171;50.520;30.486;2023-05-20T01:42:16;100794.25;;;17.38;88.93
45253;BME280;63171;50.520;30.486;2023-05-20T01:43:07;100790.63;;;17.39;89.26
45253;BME280;63171;50.520;30.486;2023-05-20T01:43:59;100790.63;;;17.39;89.38
45253;BME280;63171;50.520;30.486;2023-05-20T01:44:49;100791.22;;;17.32;89.16
45253;BME280;63171;50.520;30.486;2023-05-20T01:45:40;100786.63;;;17.34;89.27
45253;BME280;63171;50.520;30.486;2023-05-20T01:46:31;100790.13;;;17.34;89.38
45253;BME280;63171;50.520;30.486;2023-05-20T01:47:22;100790.97;;;17.35;89.33
45253;BME280;63171;50.520;30.486;2023-05-20T01:48:12;100786.44;;;17.37;89.45
45253;BME280;63171;50.520;30.486;2023-05-20T01:49:04;100792.56;;;17.37;89.40
45253;BME280;63171;50.520;30.486;2023-05-20T01:49:54;100793.63;;;17.35;89.50
45253;BME280;63171;50.520;30.486;2023-05-20T01:50:44;100799.16;;;17.32;89.33
45253;BME280;63171;50.520;30.486;2023-05-20T01:51:34;100797.22;;;17.34;89.43
45253;BME280;63171;50.520;30.486;2023-05-20T01:52:25;100797.09;;;17.35;89.29
45253;BME280;63171;50.520;30.486;2023-05-20T01:53:16;100796.19;;;17.36;89.44
45253;BME280;63171;50.520;30.486;2023-05-20T01:54:07;100799.03;;;17.33;89.28
45253;BME280;63171;50.520;30.486;2023-05-20T01:54:58;100795.53;;;17.33;89.31
45253;BME280;63171;50.520;30.486;2023-05-20T01:55:48;100799.88;;;17.34;89.38
45253;BME280;63171;50.520;30.486;2023-05-20T01:56:38;100806.72;;;17.25;89.22
45253;BME280;63171;50.520;30.486;2023-05-20T01:57:29;100791.69;;;17.26;89.32
45253;BME280;63171;50.520;30.486;2023-05-20T01:58:18;100802.16;;;17.27;89.35
45253;BME280;63171;50.520;30.486;2023-05-20T01:59:09;100802.16;;;17.27;89.17
45253;BME280;63171;50.520;30.486;2023-05-20T01:59:59;100800.47;;;17.26;89.26
45253;BME280;63171;50.520;30.486;2023-05-20T02:00:50;100797.59;;;17.29;89.32
45253;BME280;63171;50.520;30.486;2023-05-20T02:01:40;100794.31;;;17.26;89.12
45253;BME280;63171;50.520;30.486;2023-05-20T02:02:30;100800.59;;;17.25;89.13
45253;BME280;63171;50.520;30.486;2023-05-20T02:03:20;100788.31;;;17.24;89.22
45253;BME280;63171;50.520;30.486;2023-05-20T02:04:11;100796.25;;;17.24;89.25
45253;BME280;63171;50.520;30.486;2023-05-20T02:05:00;100796.25;;;17.24;89.16
45253;BME280;63171;50.520;30.486;2023-05-20T02:05:51;100799.75;;;17.24;89.01
45253;BME280;63171;50.520;30.486;2023-05-20T02:06:40;100800.72;;;17.23;88.98
45253;BME280;63171;50.520;30.486;2023-05-20T02:07:31;100801.03;;;17.19;88.89
45253;BME280;63171;50.520;30.486;2023-05-20T02:08:21;100794.91;;;17.18;88.84
45253;BME280;63171;50.520;30.486;2023-05-20T02:09:13;100792.97;;;17.20;88.96
45253;BME280;63171;50.520;30.486;2023-05-20T02:10:03;100806.44;;;17.17;88.81
45253;BME280;63171;50.520;30.486;2023-05-20T02:10:53;100794.06;;;17.18;88.80
45253;BME280;63171;50.520;30.486;2023-05-20T02:11:43;100801.88;;;17.19;88.87
45253;BME280;63171;50.520;30.486;2023-05-20T02:12:34;100795.63;;;17.20;88.67
45253;BME280;63171;50.520;30.486;2023-05-20T02:13:24;100802.59;;;17.21;88.57
45253;BME280;63171;50.520;30.486;2023-05-20T02:14:15;100799.94;;;17.21;88.71
45253;BME280;63171;50.520;30.486;2023-05-20T02:15:05;100799.94;;;17.21;88.62
45253;BME280;63171;50.520;30.486;2023-05-20T02:15:55;100799.94;;;17.21;88.54
45253;BME280;63171;50.520;30.486;2023-05-20T02:16:47;100800.19;;;17.18;88.43
45253;BME280;63171;50.520;30.486;2023-05-20T02:17:37;100799.34;;;17.18;88.29
45253;BME280;63171;50.520;30.486;2023-05-20T02:18:28;100801.88;;;17.19;88.21
45253;BME280;63171;50.520;30.486;2023-05-20T02:19:17;100802.59;;;17.21;88.12
45253;BME280;63171;50.520;30.486;2023-05-20T02:20:12;100795.50;;;17.22;88.15
45253;BME280;63171;50.520;30.486;2023-05-20T02:21:02;100801.03;;;17.19;87.96
45253;BME280;63171;50.520;30.486;2023-05-20T02:21:53;100801.56;;;17.24;88.05
45253;BME280;63171;50.520;30.486;2023-05-20T02:22:43;100809.56;;;17.22;87.81
45253;BME280;63171;50.520;30.486;2023-05-20T02:23:33;100808.00;;;17.20;87.67
45253;BME280;63171;50.520;30.486;2023-05-20T02:24:25;100800.31;;;17.17;87.61
45253;BME280;63171;50.520;30.486;2023-05-20T02:25:16;100800.31;;;17.17;87.48
45253;BME280;63171;50.520;30.486;2023-05-20T02:26:06;100809.94;;;17.18;87.41
45253;BME280;63171;50.520;30.486;2023-05-20T02:26:59;100808.38;;;17.15;87.27
45253;BME280;63171;50.520;30.486;2023-05-20T02:27:49;100803.19;;;17.13;87.26
45253;BME280;63171;50.520;30.486;2023-05-20T02:28:40;100806.56;;;17.16;87.18
45253;BME280;63171;50.520;30.486;2023-05-20T02:29:34;100805.72;;;17.15;87.07
45253;BME280;63171;50.520;30.486;2023-05-20T02:30:25;100806.78;;;17.12;87.02
45253;BME280;63171;50.520;30.486;2023-05-20T02:31:15;100807.63;;;17.13;86.91
45253;BME280;63171;50.520;30.486;2023-05-20T02:32:06;100802.22;;;17.14;86.82
45253;BME280;63171;50.520;30.486;2023-05-20T02:32:56;100803.50;;;17.09;86.59
45253;BME280;63171;50.520;30.486;2023-05-20T02:33:48;100803.50;;;17.09;86.62
45253;BME280;63171;50.520;30.486;2023-05-20T02:34:38;100800.03;;;17.08;86.53
45253;BME280;63171;50.520;30.486;2023-05-20T02:35:29;100806.91;;;17.11;86.61
45253;BME280;63171;50.520;30.486;2023-05-20T02:36:19;100807.03;;;17.09;86.48
45253;BME280;63171;50.520;30.486;2023-05-20T02:37:09;100802.34;;;17.13;86.45
45253;BME280;63171;50.520;30.486;2023-05-20T02:38:00;100801.75;;;17.09;86.28
45253;BME280;63171;50.520;30.486;2023-05-20T02:38:50;100809.56;;;17.11;86.20
45253;BME280;63171;50.520;30.486;2023-05-20T02:39:44;100799.94;;;17.10;86.11
45253;BME280;63171;50.520;30.486;2023-05-20T02:40:37;100810.53;;;17.10;86.18
45253;BME280;63171;50.520;30.486;2023-05-20T02:41:29;100807.13;;;17.08;86.09
45253;BME280;63171;50.520;30.486;2023-05-20T02:42:19;100802.91;;;17.05;85.71
45253;BME280;63171;50.520;30.486;2023-05-20T02:43:09;100809.88;;;17.06;85.91
45253;BME280;63171;50.520;30.486;2023-05-20T02:44:00;100806.28;;;17.07;85.86
45253;BME280;63171;50.520;30.486;2023-05-20T02:44:51;100807.13;;;17.08;85.83
45253;BME280;63171;50.520;30.486;2023-05-20T02:45:45;100810.72;;;17.07;85.70
45253;BME280;63171;50.520;30.486;2023-05-20T02:46:36;100806.16;;;17.09;85.52
45253;BME280;63171;50.520;30.486;2023-05-20T02:47:27;100814.09;;;17.09;85.61
45253;BME280;63171;50.520;30.486;2023-05-20T02:48:17;100808.47;;;17.13;85.52
45253;BME280;63171;50.520;30.486;2023-05-20T02:49:08;100806.69;;;17.14;85.46
45253;BME280;63171;50.520;30.486;2023-05-20T02:49:57;100811.00;;;17.15;85.44
45253;BME280;63171;50.520;30.486;2023-05-20T02:50:48;100810.66;;;17.20;85.50
45253;BME280;63171;50.520;30.486;2023-05-20T02:51:39;100809.09;;;17.17;85.21
45253;BME280;63171;50.520;30.486;2023-05-20T02:52:30;100807.63;;;17.13;85.23
45253;BME280;63171;50.520;30.486;2023-05-20T02:53:19;100813.38;;;17.07;85.15
45253;BME280;63171;50.520;30.486;2023-05-20T02:54:10;100811.38;;;17.10;84.98
45253;BME280;63171;50.520;30.486;2023-05-20T02:55:02;100813.66;;;17.15;85.06
45253;BME280;63171;50.520;30.486;2023-05-20T02:55:54;100814.50;;;17.16;84.83
45253;BME280;63171;50.520;30.486;2023-05-20T02:56:43;100812.75;;;17.03;84.53
45253;BME280;63171;50.520;30.486;2023-05-20T02:57:41;100809.03;;;17.06;84.70
45253;BME280;63171;50.520;30.486;2023-05-20T02:58:32;100817.38;;;17.12;84.62
45253;BME280;63171;50.520;30.486;2023-05-20T02:59:24;100810.53;;;17.21;84.78
45253;BME280;63171;50.520;30.486;2023-05-20T03:00:14;100821.41;;;17.29;84.83
45253;BME280;63171;50.520;30.486;2023-05-20T03:01:05;100819.78;;;17.39;84.74
45253;BME280;63171;50.520;30.486;2023-05-20T03:01:55;100823.88;;;17.43;84.66
45253;BME280;63171;50.520;30.486;2023-05-20T03:02:47;100818.97;;;17.50;84.68
45253;BME280;63171;50.520;30.486;2023-05-20T03:03:36;100812.34;;;17.56;84.45
45253;BME280;63171;50.520;30.486;2023-05-20T03:04:28;100821.53;;;17.63;84.47
45253;BME280;63171;50.520;30.486;2023-05-20T03:05:20;100820.31;;;17.67;84.27
45253;BME280;63171;50.520;30.486;2023-05-20T03:06:11;100824.91;;;17.76;84.22
45253;BME280;63171;50.520;30.486;2023-05-20T03:07:01;100830.72;;;17.81;84.00
45253;BME280;63171;50.520;30.486;2023-05-20T03:07:52;100825.91;;;17.86;83.92
45253;BME280;63171;50.520;30.486;2023-05-20T03:08:42;100828.94;;;17.93;83.63
45253;BME280;63171;50.520;30.486;2023-05-20T03:09:32;100824.34;;;17.95;83.46
45253;BME280;63171;50.520;30.486;2023-05-20T03:10:23;100827.47;;;18.00;83.31
45253;BME280;63171;50.520;30.486;2023-05-20T03:11:14;100830.50;;;18.07;83.22
45253;BME280;63171;50.520;30.486;2023-05-20T03:12:05;100835.56;;;18.10;82.80
45253;BME280;63171;50.520;30.486;2023-05-20T03:12:55;100823.16;;;18.10;82.55
45253;BME280;63171;50.520;30.486;2023-05-20T03:13:45;100823.41;;;18.18;82.27
45253;BME280;63171;50.520;30.486;2023-05-20T03:14:36;100826.19;;;18.17;82.11
45253;BME280;63171;50.520;30.486;2023-05-20T03:15:25;100834.38;;;18.25;81.73
45253;BME280;63171;50.520;30.486;2023-05-20T03:16:16;100830.41;;;18.30;81.72
45253;BME280;63171;50.520;30.486;2023-05-20T03:17:07;100837.00;;;18.36;81.42
45253;BME280;63171;50.520;30.486;2023-05-20T03:17:57;100833.41;;;18.37;81.13
45253;BME280;63171;50.520;30.486;2023-05-20T03:18:48;100836.50;;;18.42;80.99
45253;BME280;63171;50.520;30.486;2023-05-20T03:19:39;100833.88;;;18.42;80.51
45253;BME280;63171;50.520;30.486;2023-05-20T03:20:31;100831.00;;;18.45;80.12
45253;BME280;63171;50.520;30.486;2023-05-20T03:21:21;100827.97;;;18.50;80.25
45253;BME280;63171;50.520;30.486;2023-05-20T03:22:12;100833.00;;;18.53;79.98
45253;BME280;63171;50.520;30.486;2023-05-20T03:23:02;100832.16;;;18.52;79.58
45253;BME280;63171;50.520;30.486;2023-05-20T03:23:53;100827.44;;;18.56;79.42
45253;BME280;63171;50.520;30.486;2023-05-20T03:24:43;100830.84;;;18.58;79.21
45253;BME280;63171;50.520;30.486;2023-05-20T03:25:39;100832.06;;;18.65;78.96
45253;BME280;63171;50.520;30.486;2023-05-20T03:26:29;100831.72;;;18.70;78.77
45253;BME280;63171;50.520;30.486;2023-05-20T03:27:22;100825.66;;;18.68;78.31
45253;BME280;63171;50.520;30.486;2023-05-20T03:28:15;100828.81;;;18.73;78.04
45253;BME280;63171;50.520;30.486;2023-05-20T03:29:06;100836.13;;;18.80;77.96
45253;BME280;63171;50.520;30.486;2023-05-20T03:29:56;100833.34;;;18.82;77.68
45253;BME280;63171;50.520;30.486;2023-05-20T03:30:47;100825.28;;;18.83;77.35
45253;BME280;63171;50.520;30.486;2023-05-20T03:31:37;100824.06;;;18.87;77.24
45253;BME280;63171;50.520;30.486;2023-05-20T03:32:28;100828.84;;;18.94;76.86
45253;BME280;63171;50.520;30.486;2023-05-20T03:33:17;100831.84;;;19.00;76.66
45253;BME280;63171;50.520;30.486;2023-05-20T03:34:08;100831.34;;;19.06;76.64
45253;BME280;63171;50.520;30.486;2023-05-20T03:34:58;100826.50;;;19.11;76.37
45253;BME280;63171;50.520;30.486;2023-05-20T03:35:49;100824.31;;;19.16;75.81
45253;BME280;63171;50.520;30.486;2023-05-20T03:36:39;100829.22;;;19.21;75.86
45253;BME280;63171;50.520;30.486;2023-05-20T03:37:30;100837.81;;;19.25;75.68
45253;BME280;63171;50.520;30.486;2023-05-20T03:38:19;100828.59;;;19.29;75.41
45253;BME280;63171;50.520;30.486;2023-05-20T03:39:10;100838.56;;;19.36;75.00
45253;BME280;63171;50.520;30.486;2023-05-20T03:40:00;100830.50;;;19.38;74.83
45253;BME280;63171;50.520;30.486;2023-05-20T03:40:51;100838.91;;;19.43;74.50
45253;BME280;63171;50.520;30.486;2023-05-20T03:41:42;100834.03;;;19.48;74.19
45253;BME280;63171;50.520;30.486;2023-05-20T03:42:33;100825.72;;;19.53;74.08
45253;BME280;63171;50.520;30.486;2023-05-20T03:43:24;100829.81;;;19.57;73.74
45253;BME280;63171;50.520;30.486;2023-05-20T03:44:15;100832.22;;;19.60;73.28
45253;BME280;63171;50.520;30.486;2023-05-20T03:45:07;100835.22;;;19.66;73.10
45253;BME280;63171;50.520;30.486;2023-05-20T03:46:04;100824.16;;;19.71;72.62
45253;BME280;63171;50.520;30.486;2023-05-20T03:46:54;100832.72;;;19.74;72.69
45253;BME280;63171;50.520;30.486;2023-05-20T03:47:45;100830.41;;;19.81;72.28
45253;BME280;63171;50.520;30.486;2023-05-20T03:48:35;100832.59;;;19.76;71.68
45253;BME280;63171;50.520;30.486;2023-05-20T03:49:26;100837.13;;;19.85;71.63
45253;BME280;63171;50.520;30.486;2023-05-20T03:50:16;100835.03;;;19.89;71.57
45253;BME280;63171;50.520;30.486;2023-05-20T03:51:06;100832.00;;;19.93;71.18
45253;BME280;63171;50.520;30.486;2023-05-20T03:51:57;100831.59;;;19.98;70.70
45253;BME280;63171;50.520;30.486;2023-05-20T03:52:47;100823.22;;;20.02;70.90
45253;BME280;63171;50.520;30.486;2023-05-20T03:53:39;100827.31;;;20.06;70.30
45253;BME280;63171;50.520;30.486;2023-05-20T03:54:29;100832.09;;;20.13;70.20
45253;BME280;63171;50.520;30.486;2023-05-20T03:55:21;100831.94;;;20.14;69.76
45253;BME280;63171;50.520;30.486;2023-05-20T03:56:12;100831.72;;;20.17;69.83
45253;BME280;63171;50.520;30.486;2023-05-20T03:57:04;100827.34;;;20.16;69.12
45253;BME280;63171;50.520;30.486;2023-05-20T03:57:54;100831.44;;;20.20;68.99
45253;BME280;63171;50.520;30.486;2023-05-20T03:58:45;100832.69;;;20.26;69.15
45253;BME280;63171;50.520;30.486;2023-05-20T03:59:36;100825.28;;;20.29;68.72
45253;BME280;63171;50.520;30.486;2023-05-20T04:00:26;100824.63;;;20.37;68.38
45253;BME280;63171;50.520;30.486;2023-05-20T04:01:19;100830.16;;;20.45;68.49
45253;BME280;63171;50.520;30.486;2023-05-20T04:02:09;100832.53;;;20.48;68.27
45253;BME280;63171;50.520;30.486;2023-05-20T04:02:59;100823.28;;;20.52;67.94
45253;BME280;63171;50.520;30.486;2023-05-20T04:03:50;100826.53;;;20.56;67.47
45253;BME280;63171;50.520;30.486;2023-05-20T04:04:40;100836.78;;;20.60;67.50
45253;BME280;63171;50.520;30.486;2023-05-20T04:05:31;100833.56;;;20.66;67.46
45253;BME280;63171;50.520;30.486;2023-05-20T04:06:24;100830.75;;;20.68;66.89
45253;BME280;63171;50.520;30.486;2023-05-20T04:07:14;100834.16;;;20.70;66.46
45253;BME280;63171;50.520;30.486;2023-05-20T04:08:06;100829.53;;;20.72;66.42
45253;BME280;63171;50.520;30.486;2023-05-20T04:08:58;100834.56;;;20.75;66.52
45253;BME280;63171;50.520;30.486;2023-05-20T04:09:48;100823.50;;;20.80;66.08
45253;BME280;63171;50.520;30.486;2023-05-20T04:10:39;100828.44;;;20.84;65.92
45253;BME280;63171;50.520;30.486;2023-05-20T04:11:32;100833.19;;;20.90;65.92
45253;BME280;63171;50.520;30.486;2023-05-20T04:12:21;100831.78;;;20.96;65.49
45253;BME280;63171;50.520;30.486;2023-05-20T04:13:14;100834.19;;;20.99;65.34
45253;BME280;63171;50.520;30.486;2023-05-20T04:14:05;100833.91;;;21.02;65.15
45253;BME280;63171;50.520;30.486;2023-05-20T04:14:56;100840.78;;;21.05;65.05
45253;BME280;63171;50.520;30.486;2023-05-20T04:15:47;100841.31;;;21.08;64.39
45253;BME280;63171;50.520;30.486;2023-05-20T04:16:37;100850.75;;;21.12;64.26
45253;BME280;63171;50.520;30.486;2023-05-20T04:17:28;100851.00;;;21.19;64.28
45253;BME280;63171;50.520;30.486;2023-05-20T04:18:19;100848.78;;;21.24;64.06
45253;BME280;63171;50.520;30.486;2023-05-20T04:19:09;100844.88;;;21.28;63.66
45253;BME280;63171;50.520;30.486;2023-05-20T04:19:59;100848.94;;;21.32;63.70
45253;BME280;63171;50.520;30.486;2023-05-20T04:20:53;100850.06;;;21.39;63.23
45253;BME280;63171;50.520;30.486;2023-05-20T04:21:43;100842.78;;;21.41;63.42
45253;BME280;63171;50.520;30.486;2023-05-20T04:22:34;100845.84;;;21.46;63.19
45253;BME280;63171;50.520;30.486;2023-05-20T04:23:24;100844.72;;;21.49;62.60
45253;BME280;63171;50.520;30.486;2023-05-20T04:24:16;100846.97;;;21.53;62.65
45253;BME280;63171;50.520;30.486;2023-05-20T04:25:07;100844.00;;;21.57;62.12